Terminal Aerodrome Forecast
Issued by NWS Upton, NY

Current Version | Previous Version | Text Only | Print | Product List | Glossary On
Versions: 1 2 3 4 5 6 7 8 9 10 11 12 13 14 15 16 17 18 19 20 21 22 23 24 25
000
FTUS41 KOKX 010500
TAFISP
TAF
KISP 010524Z 0106/0206 22007KT 5SM BR VCSH SCT020 BKN040
      TEMPO 0106/0108 SHRA
     FM010800 24004KT 4SM -SHRA BR SCT015 BKN025
      TEMPO 0109/0113 2SM BR BKN015
     FM011300 24004KT 4SM BR BKN015 BKN025
     FM011700 23006KT P6SM SCT020 BKN035=

USA.gov is the U.S. government's official web portal to all federal, state and local government web resources and services.